First Coast — WCR9075 — position and weather

sailwx.info

Track history (hours):
 
Tides and Currents Weather Stations Pressure Air Temp Water Temp Dewpoint Dewpoint Depression Visibility Wind Speed Wind Dir Waves Ship Positions

First Coast

Owner: DANN MARINE TOWING L C, CHESAPEAKE CITY, MD. More information available from US FCC via Universal Licensing System and Coast Guard Vessel Documentation Center.

Last reported at 2015-May-06 06:32 UTC. Time now 2015-May-06 07:26 UTC.
Position N 39°55' W 075°08'.

; draft 3.5 m.

Type: Tug. MMSI: 367024280.

Date/timePositionNaut miles runAvg speedWind from/ knotsBaromVisibWave heightAir tempDewpointWater temp
2015-May-06 06:32N 39°55' W 075°08'0 0.0
2015-May-06 05:32N 39°55' W 075°08'0 0.0
2015-May-06 04:32N 39°55' W 075°08'0 0.0
2015-May-06 03:32N 39°55' W 075°08'0 0.0
2015-May-06 02:32N 39°55' W 075°08'0 0.0
2015-May-06 01:32N 39°55' W 075°08'0 0.0
2015-May-06 00:32N 39°55' W 075°08'0 0.0
2015-May-05 23:32N 39°55' W 075°08'0 0.0
2015-May-05 22:32N 39°55' W 075°08'0 0.0
2015-May-05 21:32N 39°55' W 075°08'0 0.0
2015-May-05 20:32N 39°55' W 075°08'0 0.0
2015-May-05 19:32N 39°55' W 075°08'0 0.0
2015-May-05 18:32N 39°55' W 075°08'0 0.0
2015-May-05 17:32N 39°55' W 075°08'0 0.0
2015-May-05 16:32N 39°55' W 075°08'0 0.0
2015-May-05 15:34N 39°55' W 075°08'0 0.0
2015-May-05 14:34N 39°55' W 075°08'0 0.0
2015-May-05 13:33N 39°55' W 075°08'0 0.0
2015-May-05 12:33N 39°55' W 075°08'0 0.0
2015-May-05 11:34N 39°55' W 075°08'0 0.0
2015-May-05 10:33N 39°55' W 075°08'0 0.0
2015-May-05 09:34N 39°55' W 075°08'0 0.0
2015-May-05 08:33N 39°55' W 075°08'0 0.0
2015-May-05 07:33N 39°55' W 075°08'0 0.0
2015-May-05 06:33N 39°55' W 075°08'0 0.0
2015-May-05 05:34N 39°55' W 075°08'0 0.0
2015-May-05 04:33N 39°55' W 075°08'0 0.0
2015-May-05 03:33N 39°55' W 075°08'0 0.0
2015-May-05 02:33N 39°55' W 075°08'0 0.0
2015-May-05 01:33N 39°55' W 075°08'0 0.0
2015-May-05 00:33N 39°55' W 075°08'0 0.0
2015-May-04 23:33N 39°55' W 075°08'0 0.0
2015-May-04 22:33N 39°55' W 075°08'0 0.0
2015-May-04 21:34N 39°55' W 075°08'2 1.6
2015-May-04 20:34N 39°54' W 075°08'6 6.2
2015-May-04 19:34N 39°51' W 075°15'7 7.0
2015-May-04 18:33N 39°49' W 075°24'8 7.7
2015-May-04 17:34N 39°43' W 075°30'7 7.4
2015-May-04 16:33N 39°36' W 075°34'6 5.7
2015-May-04 15:33N 39°33' W 075°40'7 7.4
2015-May-04 14:34N 39°32' W 075°50'7 7.4
2015-May-04 13:34N 39°28' W 075°58'8 8.1
2015-May-04 12:33N 39°23' W 076°06'8 8.1
2015-May-04 11:34N 39°17' W 076°14'8 7.9
2015-May-04 10:34N 39°10' W 076°18'6 5.6
2015-May-04 09:33N 39°05' W 076°20'5 4.9
2015-May-04 08:27N 39°00' W 076°23'  
2015-Apr-26 18:29N 38°06' W 076°16'70 7.5
2015-Apr-26 09:09N 39°16' W 076°14'5 7.5
2015-Apr-26 08:28N 39°20' W 076°11'7 7.3
2015-Apr-26 07:32N 39°24' W 076°03'7 6.8
2015-Apr-26 06:33N 39°29' W 075°58'  
Track history (hours):
 
Tides and Currents Weather Stations Pressure Air Temp Water Temp Dewpoint Dewpoint Depression Visibility Wind Speed Wind Dir Waves Ship Positions

First Coast

Owner: DANN MARINE TOWING L C, CHESAPEAKE CITY, MD. More information available from US FCC via Universal Licensing System and Coast Guard Vessel Documentation Center.

Last reported at 2015-May-06 06:32 UTC. Time now 2015-May-06 07:26 UTC.
Position N 39°55' W 075°08'.

; draft 3.5 m.

Type: Tug. MMSI: 367024280.

Date/timePositionNaut miles runAvg speedWind from/ knotsBaromVisibWave heightAir tempDewpointWater temp
2015-May-06 06:32N 39°55' W 075°08'0 0.0
2015-May-06 05:32N 39°55' W 075°08'0 0.0
2015-May-06 04:32N 39°55' W 075°08'0 0.0
2015-May-06 03:32N 39°55' W 075°08'0 0.0
2015-May-06 02:32N 39°55' W 075°08'0 0.0
2015-May-06 01:32N 39°55' W 075°08'0 0.0
2015-May-06 00:32N 39°55' W 075°08'0 0.0
2015-May-05 23:32N 39°55' W 075°08'0 0.0
2015-May-05 22:32N 39°55' W 075°08'0 0.0
2015-May-05 21:32N 39°55' W 075°08'0 0.0
2015-May-05 20:32N 39°55' W 075°08'0 0.0
2015-May-05 19:32N 39°55' W 075°08'0 0.0
2015-May-05 18:32N 39°55' W 075°08'0 0.0
2015-May-05 17:32N 39°55' W 075°08'0 0.0
2015-May-05 16:32N 39°55' W 075°08'0 0.0
2015-May-05 15:34N 39°55' W 075°08'0 0.0
2015-May-05 14:34N 39°55' W 075°08'0 0.0
2015-May-05 13:33N 39°55' W 075°08'0 0.0
2015-May-05 12:33N 39°55' W 075°08'0 0.0
2015-May-05 11:34N 39°55' W 075°08'0 0.0
2015-May-05 10:33N 39°55' W 075°08'0 0.0
2015-May-05 09:34N 39°55' W 075°08'0 0.0
2015-May-05 08:33N 39°55' W 075°08'0 0.0
2015-May-05 07:33N 39°55' W 075°08'0 0.0
2015-May-05 06:33N 39°55' W 075°08'0 0.0
2015-May-05 05:34N 39°55' W 075°08'0 0.0
2015-May-05 04:33N 39°55' W 075°08'0 0.0
2015-May-05 03:33N 39°55' W 075°08'0 0.0
2015-May-05 02:33N 39°55' W 075°08'0 0.0
2015-May-05 01:33N 39°55' W 075°08'0 0.0
2015-May-05 00:33N 39°55' W 075°08'0 0.0
2015-May-04 23:33N 39°55' W 075°08'0 0.0
2015-May-04 22:33N 39°55' W 075°08'0 0.0
2015-May-04 21:34N 39°55' W 075°08'2 1.6
2015-May-04 20:34N 39°54' W 075°08'6 6.2
2015-May-04 19:34N 39°51' W 075°15'7 7.0
2015-May-04 18:33N 39°49' W 075°24'8 7.7
2015-May-04 17:34N 39°43' W 075°30'7 7.4
2015-May-04 16:33N 39°36' W 075°34'6 5.7
2015-May-04 15:33N 39°33' W 075°40'7 7.4
2015-May-04 14:34N 39°32' W 075°50'7 7.4
2015-May-04 13:34N 39°28' W 075°58'8 8.1
2015-May-04 12:33N 39°23' W 076°06'8 8.1
2015-May-04 11:34N 39°17' W 076°14'8 7.9
2015-May-04 10:34N 39°10' W 076°18'6 5.6
2015-May-04 09:33N 39°05' W 076°20'5 4.9
2015-May-04 08:27N 39°00' W 076°23'  
2015-Apr-26 18:29N 38°06' W 076°16'70 7.5
2015-Apr-26 09:09N 39°16' W 076°14'5 7.5
2015-Apr-26 08:28N 39°20' W 076°11'7 7.3
2015-Apr-26 07:32N 39°24' W 076°03'7 6.8
2015-Apr-26 06:33N 39°29' W 075°58'  

Dump ship's entire track history